createdAt,value
2019-03-03T00:02:18.026Z,14.73
2019-03-03T00:04:49.375Z,15.37
2019-03-03T00:07:20.922Z,14.93
2019-03-03T00:09:52.340Z,15.10
2019-03-03T00:12:23.726Z,14.50
2019-03-03T00:15:07.073Z,14.10
2019-03-03T00:17:38.424Z,14.07
2019-03-03T00:20:10.168Z,14.03
2019-03-03T00:22:41.543Z,14.47
2019-03-03T00:25:12.974Z,14.90
2019-03-03T00:27:56.595Z,14.90
2019-03-03T00:30:28.245Z,14.90
2019-03-03T00:32:59.637Z,14.77
2019-03-03T00:35:31.682Z,14.50
2019-03-03T00:38:28.886Z,13.63
2019-03-03T00:41:29.176Z,14.03
2019-03-03T00:44:34.518Z,14.07
2019-03-03T00:47:35.925Z,13.33
2019-03-03T00:50:16.417Z,14.30
2019-03-03T00:53:01.589Z,13.73
2019-03-03T00:56:04.715Z,14.60
2019-03-03T00:59:01.675Z,14.00
2019-03-03T01:01:41.544Z,13.50
2019-03-03T01:04:34.198Z,14.43
2019-03-03T01:07:27.689Z,12.43
2019-03-03T01:10:20.415Z,13.50
2019-03-03T01:12:58.946Z,13.50
2019-03-03T01:15:51.332Z,12.03
2019-03-03T01:18:41.467Z,12.77
2019-03-03T01:21:19.843Z,13.40
2019-03-03T01:24:08.692Z,13.03
2019-03-03T01:26:51.185Z,12.70
2019-03-03T01:29:22.627Z,12.63
2019-03-03T01:31:53.911Z,13.50
2019-03-03T01:34:25.413Z,13.67
2019-03-03T01:36:56.688Z,12.63
2019-03-03T01:39:28.106Z,13.27
2019-03-03T01:41:59.497Z,12.63
2019-03-03T01:44:30.840Z,12.47
2019-03-03T01:47:14.334Z,12.60
2019-03-03T01:49:55.864Z,12.97
2019-03-03T01:52:27.199Z,12.27
2019-03-03T01:54:58.541Z,13.27
2019-03-03T01:57:30.815Z,12.47
2019-03-03T02:00:02.110Z,12.60
2019-03-03T02:02:35.013Z,13.00
2019-03-03T02:05:06.505Z,13.30
2019-03-03T02:07:37.790Z,12.40
2019-03-03T02:10:09.251Z,13.00
2019-03-03T02:12:40.605Z,12.63
2019-03-03T02:15:13.282Z,13.03
2019-03-03T02:17:44.582Z,13.47
2019-03-03T02:20:16.265Z,12.63
2019-03-03T02:22:47.621Z,12.23
2019-03-03T02:25:19.059Z,12.10
2019-03-03T02:27:50.813Z,13.03
2019-03-03T02:30:22.319Z,13.00
2019-03-03T02:32:54.681Z,13.93
2019-03-03T02:35:26.071Z,13.47
2019-03-03T02:37:57.416Z,13.83
2019-03-03T02:40:28.795Z,13.67
2019-03-03T02:43:00.114Z,12.53
2019-03-03T02:45:31.502Z,12.50
2019-03-03T02:48:02.898Z,13.07
2019-03-03T02:50:34.288Z,13.27
2019-03-03T02:53:05.649Z,12.80
2019-03-03T02:55:37.053Z,13.63
2019-03-03T02:58:09.334Z,12.47
2019-03-03T03:00:47.951Z,13.10
2019-03-03T03:03:19.760Z,13.37
2019-03-03T03:09:26.777Z,12.57
2019-03-03T03:12:10.350Z,12.33
2019-03-03T03:14:59.249Z,12.93
2019-03-03T03:17:42.939Z,13.83
2019-03-03T03:20:45.337Z,13.37
2019-03-03T03:23:25.014Z,13.17
2019-03-03T03:26:15.445Z,14.07
2019-03-03T03:28:53.989Z,12.50
2019-03-03T03:31:44.451Z,12.60
2019-03-03T03:34:23.967Z,12.50
2019-03-03T03:37:03.278Z,12.30
2019-03-03T03:40:00.771Z,11.87
2019-03-03T03:42:41.381Z,11.87
2019-03-03T03:45:27.111Z,12.27
2019-03-03T03:48:23.540Z,11.03
2019-03-03T03:51:12.191Z,11.43
2019-03-03T03:54:08.325Z,11.37
2019-03-03T03:56:48.246Z,10.30
2019-03-03T03:59:38.050Z,11.10
2019-03-03T04:02:28.465Z,10.47
2019-03-03T04:05:15.442Z,10.70
2019-03-03T04:08:09.711Z,10.93
2019-03-03T04:10:58.740Z,10.93
2019-03-03T04:13:51.982Z,10.40
2019-03-03T04:16:27.893Z,10.50
2019-03-03T04:19:04.948Z,10.50
2019-03-03T04:21:58.331Z,9.93
2019-03-03T04:25:00.387Z,10.23
2019-03-03T04:27:56.836Z,10.20
2019-03-03T04:30:53.322Z,9.63
2019-03-03T04:33:46.200Z,10.17
2019-03-03T04:36:36.687Z,10.13
2019-03-03T04:39:26.054Z,9.37
2019-03-03T04:42:16.498Z,9.30
2019-03-03T04:45:03.388Z,9.37
2019-03-03T04:47:46.392Z,9.60
2019-03-03T04:50:41.596Z,9.90
2019-03-03T04:53:27.205Z,9.63
2019-03-03T04:56:28.963Z,9.90
2019-03-03T04:59:13.569Z,9.33
2019-03-03T05:02:07.565Z,9.37
2019-03-03T05:05:04.159Z,9.30
2019-03-03T05:07:57.518Z,9.10
2019-03-03T05:11:02.692Z,9.67
2019-03-03T05:13:39.205Z,9.33
2019-03-03T05:16:47.460Z,9.07
2019-03-03T05:19:28.222Z,9.30
2019-03-03T05:21:59.560Z,9.00
2019-03-03T05:24:34.223Z,8.63
2019-03-03T05:27:04.003Z,8.97
2019-03-03T05:29:35.259Z,9.03
2019-03-03T05:32:06.601Z,8.47
2019-03-03T05:34:37.860Z,8.73
2019-03-03T05:37:09.282Z,9.03
2019-03-03T05:39:40.621Z,9.33
2019-03-03T05:42:12.114Z,9.03
2019-03-03T05:44:43.408Z,9.03
2019-03-03T05:47:14.760Z,8.93
2019-03-03T05:49:46.029Z,8.63
2019-03-03T05:52:17.379Z,9.50
2019-03-03T05:54:48.652Z,8.73
2019-03-03T05:57:20.185Z,8.83
2019-03-03T05:59:51.461Z,8.57
2019-03-03T06:02:22.898Z,8.53
2019-03-03T06:04:54.160Z,8.80
2019-03-03T06:07:25.605Z,9.00
2019-03-03T06:09:56.797Z,8.67
2019-03-03T06:12:28.121Z,8.73
2019-03-03T06:14:59.353Z,8.00
2019-03-03T06:17:30.964Z,8.70
2019-03-03T06:20:02.266Z,8.37
2019-03-03T06:22:33.541Z,7.87
2019-03-03T06:25:05.389Z,8.60
2019-03-03T06:27:36.829Z,8.87
2019-03-03T06:30:09.741Z,8.37
2019-03-03T06:32:41.439Z,8.43
2019-03-03T06:35:12.805Z,8.20
2019-03-03T06:37:44.134Z,8.70
2019-03-03T06:40:15.493Z,8.37
2019-03-03T06:42:46.729Z,8.23
2019-03-03T06:45:18.194Z,8.10
2019-03-03T06:47:49.607Z,8.40
2019-03-03T06:50:20.883Z,8.13
2019-03-03T06:52:52.184Z,7.73
2019-03-03T06:55:23.616Z,8.30
2019-03-03T06:57:54.911Z,7.90
2019-03-03T07:00:26.294Z,8.40
2019-03-03T07:02:57.842Z,8.17
2019-03-03T07:05:29.216Z,7.90
2019-03-03T07:08:00.476Z,8.77
2019-03-03T07:10:31.856Z,9.10
2019-03-03T07:13:03.232Z,7.93
2019-03-03T07:15:34.564Z,8.37
2019-03-03T07:18:05.961Z,7.67
2019-03-03T07:20:37.230Z,8.33
2019-03-03T07:23:08.665Z,8.17
2019-03-03T07:25:39.989Z,7.80
2019-03-03T07:28:11.558Z,7.53
2019-03-03T07:30:42.924Z,7.83
2019-03-03T07:33:16.099Z,7.90
2019-03-03T07:35:47.301Z,7.47
2019-03-03T07:38:18.598Z,7.90
2019-03-03T07:40:49.982Z,7.90
2019-03-03T07:43:21.461Z,7.77
2019-03-03T07:45:52.957Z,7.43
2019-03-03T07:48:24.749Z,7.80
2019-03-03T07:50:56.016Z,7.67
2019-03-03T07:53:27.431Z,7.77
2019-03-03T07:56:10.728Z,7.43
2019-03-03T07:58:42.126Z,7.83
2019-03-03T08:01:13.483Z,7.93
2019-03-03T08:03:46.637Z,8.50
2019-03-03T08:06:17.947Z,8.00
2019-03-03T08:08:49.277Z,7.27
2019-03-03T08:11:20.561Z,8.20
2019-03-03T08:13:51.952Z,7.53
2019-03-03T08:16:23.291Z,8.50
2019-03-03T08:18:54.644Z,7.97
2019-03-03T08:21:25.938Z,8.27
2019-03-03T08:23:57.289Z,8.30
2019-03-03T08:26:28.573Z,8.70
2019-03-03T08:28:59.901Z,11.00
2019-03-03T08:31:31.114Z,7.60
2019-03-03T08:34:02.550Z,7.53
2019-03-03T08:36:33.818Z,8.13
2019-03-03T08:39:07.111Z,7.53
2019-03-03T08:41:41.715Z,7.90
2019-03-03T08:44:16.925Z,8.47
2019-03-03T08:47:07.328Z,8.10
2019-03-03T08:49:46.303Z,8.20
2019-03-03T08:52:42.459Z,7.97
2019-03-03T08:55:31.565Z,8.73
2019-03-03T08:58:09.560Z,8.00
2019-03-03T09:00:59.981Z,8.47
2019-03-03T09:03:37.063Z,7.63
2019-03-03T09:06:16.499Z,7.77
2019-03-03T09:09:12.484Z,8.37
2019-03-03T09:12:02.873Z,8.63
2019-03-03T09:14:49.342Z,8.63
2019-03-03T09:17:39.790Z,8.53
2019-03-03T09:20:29.358Z,8.03
2019-03-03T09:23:19.793Z,7.77
2019-03-03T09:25:57.798Z,8.50
2019-03-03T09:28:48.212Z,8.33
2019-03-03T09:31:53.295Z,7.80
2019-03-03T09:34:43.737Z,7.67
2019-03-03T09:37:30.516Z,8.17
2019-03-03T09:40:15.803Z,10.27
2019-03-03T09:43:02.950Z,8.00
2019-03-03T09:46:03.033Z,8.33
2019-03-03T09:48:59.197Z,7.80
2019-03-03T09:51:38.453Z,8.40
2019-03-03T09:54:16.652Z,7.77
2019-03-03T09:56:56.570Z,8.40
2019-03-03T09:59:36.120Z,8.23
2019-03-03T10:02:25.277Z,8.43
2019-03-03T10:05:11.565Z,8.43
2019-03-03T10:08:09.114Z,9.83
2019-03-03T10:11:03.605Z,8.30
2019-03-03T10:13:40.073Z,7.60
2019-03-03T10:16:31.287Z,8.00
2019-03-03T10:19:24.721Z,7.33
2019-03-03T10:22:17.818Z,7.43
2019-03-03T10:25:16.872Z,8.30
2019-03-03T10:28:09.234Z,8.23
2019-03-03T10:30:59.691Z,8.80
2019-03-03T10:33:45.936Z,8.37
2019-03-03T10:36:34.076Z,7.87
2019-03-03T10:39:32.518Z,7.30
2019-03-03T10:42:22.981Z,10.07
2019-03-03T10:45:16.562Z,7.40
2019-03-03T10:48:08.357Z,7.70
2019-03-03T10:50:56.333Z,7.40
2019-03-03T10:53:52.535Z,7.27
2019-03-03T10:56:32.120Z,6.87
2019-03-03T10:59:29.410Z,7.00
2019-03-03T11:02:07.434Z,7.40
2019-03-03T11:04:45.425Z,7.60
2019-03-03T11:07:50.630Z,8.67
2019-03-03T11:10:39.666Z,7.53
2019-03-03T11:13:17.676Z,7.83
2019-03-03T11:16:14.536Z,8.27
2019-03-03T11:18:56.868Z,10.73
2019-03-03T11:21:41.797Z,7.13
2019-03-03T11:24:25.622Z,8.40
2019-03-03T11:27:14.585Z,9.03
2019-03-03T11:29:54.468Z,7.67
2019-03-03T11:32:33.903Z,7.83
2019-03-03T11:35:27.366Z,8.13
2019-03-03T11:38:23.485Z,7.23
2019-03-03T11:41:16.866Z,8.90
2019-03-03T11:44:03.530Z,8.00
2019-03-03T11:46:56.955Z,9.33
2019-03-03T11:49:47.373Z,7.67
2019-03-03T11:52:24.326Z,7.30
2019-03-03T11:55:12.901Z,8.33
2019-03-03T11:58:12.009Z,7.43
2019-03-03T12:00:53.997Z,7.50
2019-03-03T12:03:44.432Z,9.13
2019-03-03T12:06:29.848Z,8.43
2019-03-03T12:09:20.241Z,8.67
2019-03-03T12:12:09.945Z,7.77
2019-03-03T12:14:54.367Z,8.47
2019-03-03T12:17:41.063Z,9.00
2019-03-03T12:20:35.034Z,8.00
2019-03-03T12:23:34.359Z,7.00
2019-03-03T12:26:40.761Z,7.10
2019-03-03T12:29:45.907Z,7.43
2019-03-03T12:32:45.194Z,6.73
2019-03-03T12:35:23.995Z,7.80
2019-03-03T12:38:14.410Z,6.87
2019-03-03T12:40:55.786Z,8.33
2019-03-03T12:43:44.094Z,7.10
2019-03-03T12:46:23.837Z,7.60
2019-03-03T12:49:15.634Z,8.83
2019-03-03T12:51:58.951Z,9.03
2019-03-03T12:54:48.769Z,7.07
2019-03-03T12:57:30.521Z,8.10
2019-03-03T13:00:23.902Z,7.97
2019-03-03T13:03:18.030Z,6.73
2019-03-03T13:06:01.305Z,7.30
2019-03-03T13:08:47.901Z,6.80
2019-03-03T13:11:32.836Z,8.23
2019-03-03T13:14:23.200Z,7.53
2019-03-03T13:17:13.337Z,6.87
2019-03-03T13:19:58.084Z,7.37
2019-03-03T13:22:37.814Z,6.80
2019-03-03T13:25:34.280Z,6.90
2019-03-03T13:28:23.301Z,10.40
2019-03-03T13:31:13.701Z,6.17
2019-03-03T13:34:15.983Z,6.23
2019-03-03T13:37:16.453Z,6.17
2019-03-03T13:40:02.792Z,6.27
2019-03-03T13:42:43.473Z,6.10
2019-03-03T13:45:15.341Z,7.13
2019-03-03T13:47:46.737Z,6.13
2019-03-03T13:50:19.218Z,7.40
2019-03-03T13:52:50.604Z,7.30
2019-03-03T13:55:33.804Z,5.63
2019-03-03T13:58:06.852Z,5.73
2019-03-03T14:00:38.348Z,6.47
2019-03-03T14:03:09.772Z,5.90
2019-03-03T14:05:42.253Z,6.50
2019-03-03T14:08:13.607Z,6.23
2019-03-03T14:10:45.216Z,8.80
2019-03-03T14:13:16.555Z,6.13
2019-03-03T14:15:58.081Z,6.30
2019-03-03T14:18:29.428Z,7.50
2019-03-03T14:21:00.888Z,6.80
2019-03-03T14:23:32.255Z,5.80
2019-03-03T14:26:03.668Z,6.13
2019-03-03T14:28:34.974Z,6.37
2019-03-03T14:31:06.500Z,6.73
2019-03-03T14:33:37.815Z,6.30
2019-03-03T14:36:09.251Z,6.57
2019-03-03T14:38:52.437Z,6.73
2019-03-03T14:41:23.884Z,6.40
2019-03-03T14:43:55.149Z,6.30
2019-03-03T14:46:26.577Z,6.10
2019-03-03T14:48:57.930Z,6.60
2019-03-03T14:51:29.430Z,6.13
2019-03-03T14:54:00.757Z,6.40
2019-03-03T14:56:32.233Z,6.50
2019-03-03T14:59:03.568Z,6.20
2019-03-03T15:01:35.005Z,6.30
2019-03-03T15:04:17.780Z,6.47
2019-03-03T15:06:49.250Z,6.00
2019-03-03T15:09:24.348Z,6.93
2019-03-03T15:12:07.571Z,5.90
2019-03-03T15:14:39.988Z,6.00
2019-03-03T15:17:11.337Z,5.90
2019-03-03T15:19:42.604Z,6.30
2019-03-03T15:22:14.044Z,6.27
2019-03-03T15:24:45.410Z,5.97
2019-03-03T15:27:28.792Z,6.50
2019-03-03T15:30:00.273Z,6.77
2019-03-03T15:32:31.696Z,6.60
2019-03-03T15:35:03.110Z,6.30
2019-03-03T15:37:34.452Z,8.17
2019-03-03T15:40:06.731Z,6.37
2019-03-03T15:42:38.464Z,6.37
2019-03-03T15:45:11.971Z,6.23
2019-03-03T15:47:43.332Z,6.40
2019-03-03T15:50:14.800Z,6.17
2019-03-03T15:52:46.317Z,6.07
2019-03-03T15:55:17.850Z,5.90
2019-03-03T15:57:49.277Z,6.00
2019-03-03T16:00:22.921Z,6.37
2019-03-03T16:02:54.540Z,6.50
2019-03-03T16:05:25.898Z,5.23
2019-03-03T16:08:09.185Z,6.57
2019-03-03T16:10:40.584Z,6.57
2019-03-03T16:13:12.017Z,6.20
2019-03-03T16:15:43.421Z,6.10
2019-03-03T16:18:16.281Z,6.33
2019-03-03T16:20:47.642Z,7.00
2019-03-03T16:23:18.925Z,7.00
2019-03-03T16:25:50.251Z,5.83
2019-03-03T16:28:21.646Z,6.60
2019-03-03T16:30:52.932Z,6.60
2019-03-03T16:33:24.225Z,6.10
2019-03-03T16:35:55.633Z,6.73
2019-03-03T16:38:27.225Z,6.53
2019-03-03T16:40:58.702Z,6.33
2019-03-03T16:43:30.058Z,6.17
2019-03-03T16:46:01.325Z,6.20
2019-03-03T16:48:32.703Z,6.47
2019-03-03T16:51:04.039Z,6.97
2019-03-03T16:53:47.323Z,6.90
2019-03-03T16:56:30.153Z,6.33
2019-03-03T16:59:01.612Z,6.37
2019-03-03T17:01:33.030Z,6.77
2019-03-03T17:04:04.466Z,6.07
2019-03-03T17:06:35.645Z,6.40
2019-03-03T17:09:07.157Z,6.77
2019-03-03T17:11:39.769Z,7.40
2019-03-03T17:14:11.211Z,6.70
2019-03-03T17:16:42.558Z,7.63
2019-03-03T17:19:13.965Z,6.83
2019-03-03T17:21:45.318Z,6.50
2019-03-03T17:24:16.638Z,6.77
2019-03-03T17:26:47.983Z,6.90
2019-03-03T17:29:19.365Z,7.60
2019-03-03T17:31:50.761Z,6.80
2019-03-03T17:34:22.224Z,7.10
2019-03-03T17:36:53.585Z,6.70
2019-03-03T17:39:25.196Z,7.00
2019-03-03T17:41:56.704Z,7.40
2019-03-03T17:44:28.372Z,7.20
2019-03-03T17:46:59.724Z,6.87
2019-03-03T17:49:31.151Z,7.00
2019-03-03T17:52:02.508Z,6.70
2019-03-03T17:54:33.934Z,6.47
2019-03-03T17:57:05.377Z,7.20
2019-03-03T17:59:36.634Z,7.23
2019-03-03T18:02:08.295Z,6.83
2019-03-03T18:04:39.637Z,7.30
2019-03-03T18:07:21.221Z,7.07
2019-03-03T18:09:52.541Z,6.63
2019-03-03T18:12:24.766Z,7.10
2019-03-03T18:14:56.156Z,6.77
2019-03-03T18:17:27.524Z,7.00
2019-03-03T18:19:59.203Z,7.23
2019-03-03T18:22:30.485Z,7.17
2019-03-03T18:25:01.896Z,6.90
2019-03-03T18:27:33.281Z,7.00
2019-03-03T18:30:06.737Z,6.63
2019-03-03T18:32:38.093Z,6.80
2019-03-03T18:35:09.854Z,6.83
2019-03-03T18:37:41.181Z,7.33
2019-03-03T18:40:13.201Z,7.50
2019-03-03T18:42:44.661Z,7.03
2019-03-03T18:45:27.692Z,6.83
2019-03-03T18:47:59.030Z,8.60
2019-03-03T18:50:30.443Z,7.30
2019-03-03T18:53:01.709Z,6.50
2019-03-03T18:55:33.149Z,7.10
2019-03-03T18:58:06.426Z,6.93
2019-03-03T19:00:37.924Z,9.73
2019-03-03T19:03:09.335Z,7.10
2019-03-03T19:05:40.789Z,7.13
2019-03-03T19:08:23.618Z,7.20
2019-03-03T19:10:55.158Z,6.60
2019-03-03T19:13:38.733Z,6.93
2019-03-03T19:16:11.210Z,7.20
2019-03-03T19:18:55.099Z,7.53
2019-03-03T19:21:26.469Z,7.43
2019-03-03T19:23:57.881Z,7.50
2019-03-03T19:26:29.260Z,7.30
2019-03-03T19:29:12.794Z,7.23
2019-03-03T19:31:44.148Z,6.90
2019-03-03T19:34:15.563Z,7.50
2019-03-03T19:36:58.899Z,7.43
2019-03-03T19:39:30.334Z,7.47
2019-03-03T19:42:01.516Z,7.57
2019-03-03T19:44:45.076Z,7.13
2019-03-03T19:47:16.541Z,7.50
2019-03-03T19:49:47.910Z,6.80
2019-03-03T19:52:19.438Z,6.73
2019-03-03T19:54:50.815Z,7.23
2019-03-03T19:57:34.162Z,6.90
2019-03-03T20:00:07.321Z,7.33
2019-03-03T20:02:38.925Z,7.30
2019-03-03T20:05:11.567Z,7.23
2019-03-03T20:07:46.017Z,7.60
2019-03-03T20:10:29.126Z,9.33
2019-03-03T20:13:00.798Z,7.20
2019-03-03T20:15:32.418Z,7.70
2019-03-03T20:18:05.308Z,7.60
2019-03-03T20:20:36.769Z,7.23
2019-03-03T20:23:08.273Z,6.63
2019-03-03T20:25:39.708Z,7.43
2019-03-03T20:28:11.174Z,7.10
2019-03-03T20:30:43.773Z,7.53
2019-03-03T20:33:15.396Z,6.97
2019-03-03T20:35:46.756Z,6.83
2019-03-03T20:38:18.126Z,6.10
2019-03-03T20:41:01.536Z,7.07
2019-03-03T20:43:33.173Z,6.77
2019-03-03T20:46:04.508Z,6.77
2019-03-03T20:50:58.815Z,7.23
2019-03-03T20:53:30.119Z,7.30
2019-03-03T20:56:01.529Z,7.00
2019-03-03T20:58:32.745Z,7.20
2019-03-03T21:01:04.130Z,7.03
2019-03-03T21:03:35.383Z,7.93
2019-03-03T21:06:06.765Z,7.40
2019-03-03T21:08:38.101Z,7.53
2019-03-03T21:11:09.697Z,7.13
2019-03-03T21:13:42.003Z,6.80
2019-03-03T21:16:13.286Z,7.00
2019-03-03T21:18:44.755Z,7.03
2019-03-03T21:21:16.055Z,6.97
2019-03-03T21:23:47.336Z,7.67
2019-03-03T21:26:18.661Z,7.13
2019-03-03T21:28:49.931Z,7.33
2019-03-03T21:31:21.269Z,7.70
2019-03-03T21:33:52.600Z,6.73
2019-03-03T21:36:23.926Z,7.23
2019-03-03T21:38:55.109Z,6.50
2019-03-03T21:41:26.530Z,7.30
2019-03-03T21:43:57.785Z,7.07
2019-03-03T21:46:29.007Z,7.17
2019-03-03T21:49:00.354Z,7.07
2019-03-03T21:51:31.777Z,7.33
2019-03-03T21:54:03.133Z,7.23
2019-03-03T21:56:34.419Z,7.37
2019-03-03T21:59:05.888Z,7.37
2019-03-03T22:01:37.224Z,7.43
2019-03-03T22:04:08.509Z,7.10
2019-03-03T22:06:39.700Z,6.50
2019-03-03T22:09:11.632Z,7.20
2019-03-03T22:11:44.509Z,6.87
2019-03-03T22:14:15.785Z,7.30
2019-03-03T22:16:47.072Z,7.23
2019-03-03T22:19:18.445Z,7.57
2019-03-03T22:21:50.039Z,7.50
2019-03-03T22:24:21.214Z,7.13
2019-03-03T22:26:52.513Z,7.50
2019-03-03T22:29:23.862Z,7.00
2019-03-03T22:31:55.172Z,6.83
2019-03-03T22:34:26.470Z,7.03
2019-03-03T22:36:57.752Z,7.67
2019-03-03T22:39:29.904Z,7.17
2019-03-03T22:42:01.332Z,7.27
2019-03-03T22:44:32.528Z,7.07
2019-03-03T22:47:04.064Z,7.27
2019-03-03T22:49:35.248Z,6.60
2019-03-03T22:52:06.661Z,7.20
2019-03-03T22:54:37.922Z,6.77
2019-03-03T22:57:09.274Z,7.53
2019-03-03T22:59:40.471Z,7.43
2019-03-03T23:02:14.001Z,7.03
2019-03-03T23:05:15.497Z,7.43
2019-03-03T23:08:06.302Z,7.30
2019-03-03T23:11:05.192Z,7.50
2019-03-03T23:13:58.872Z,6.97
2019-03-03T23:17:12.946Z,7.20
2019-03-03T23:20:02.063Z,7.33
2019-03-03T23:23:25.293Z,7.57
2019-03-03T23:26:17.255Z,7.33
2019-03-03T23:31:19.661Z,7.40
2019-03-03T23:33:51.004Z,7.70
2019-03-03T23:36:22.406Z,7.43
2019-03-03T23:38:53.777Z,7.20
2019-03-03T23:41:25.190Z,7.57
2019-03-03T23:43:56.543Z,7.53
2019-03-03T23:46:27.761Z,7.47
2019-03-03T23:48:58.953Z,6.87
2019-03-03T23:51:30.288Z,7.50
2019-03-03T23:54:01.561Z,7.80
2019-03-03T23:56:32.768Z,7.03
2019-03-03T23:59:04.204Z,8.83
